sensor_id;sensor_type;location;lat;lon;timestamp;P1;durP1;ratioP1;P2;durP2;ratioP2
8636;SDS011;4356;49.068;8.658;2022-11-20T00:00:25;4.63;;;4.23;;
8636;SDS011;4356;49.068;8.658;2022-11-20T00:02:50;4.57;;;4.17;;
8636;SDS011;4356;49.068;8.658;2022-11-20T00:05:16;4.30;;;3.90;;
8636;SDS011;4356;49.068;8.658;2022-11-20T00:07:43;4.30;;;4.00;;
8636;SDS011;4356;49.068;8.658;2022-11-20T00:10:08;4.47;;;4.17;;
8636;SDS011;4356;49.068;8.658;2022-11-20T00:12:34;4.57;;;4.27;;
8636;SDS011;4356;49.068;8.658;2022-11-20T00:15:00;4.87;;;4.37;;
8636;SDS011;4356;49.068;8.658;2022-11-20T00:17:26;4.03;;;3.80;;
8636;SDS011;4356;49.068;8.658;2022-11-20T00:19:51;4.50;;;4.10;;
8636;SDS011;4356;49.068;8.658;2022-11-20T00:22:17;4.40;;;4.10;;
8636;SDS011;4356;49.068;8.658;2022-11-20T00:24:42;4.10;;;3.80;;
8636;SDS011;4356;49.068;8.658;2022-11-20T00:27:08;4.20;;;3.90;;
8636;SDS011;4356;49.068;8.658;2022-11-20T00:29:34;4.30;;;4.00;;
8636;SDS011;4356;49.068;8.658;2022-11-20T00:31:59;4.23;;;3.93;;
8636;SDS011;4356;49.068;8.658;2022-11-20T00:34:25;5.00;;;4.60;;
8636;SDS011;4356;49.068;8.658;2022-11-20T00:36:51;4.67;;;4.37;;
8636;SDS011;4356;49.068;8.658;2022-11-20T00:39:16;4.53;;;4.23;;
8636;SDS011;4356;49.068;8.658;2022-11-20T00:41:42;4.57;;;4.27;;
8636;SDS011;4356;49.068;8.658;2022-11-20T00:44:08;4.90;;;4.50;;
8636;SDS011;4356;49.068;8.658;2022-11-20T00:46:33;4.50;;;4.20;;
8636;SDS011;4356;49.068;8.658;2022-11-20T00:49:00;4.60;;;4.20;;
8636;SDS011;4356;49.068;8.658;2022-11-20T00:51:26;4.10;;;3.80;;
8636;SDS011;4356;49.068;8.658;2022-11-20T00:53:54;4.43;;;4.13;;
8636;SDS011;4356;49.068;8.658;2022-11-20T00:56:25;4.60;;;4.27;;
8636;SDS011;4356;49.068;8.658;2022-11-20T00:58:51;4.50;;;4.20;;
8636;SDS011;4356;49.068;8.658;2022-11-20T01:01:17;4.33;;;4.03;;
8636;SDS011;4356;49.068;8.658;2022-11-20T01:03:44;4.97;;;4.60;;
8636;SDS011;4356;49.068;8.658;2022-11-20T01:06:16;5.67;;;5.17;;
8636;SDS011;4356;49.068;8.658;2022-11-20T01:08:46;6.03;;;5.53;;
8636;SDS011;4356;49.068;8.658;2022-11-20T01:11:23;6.20;;;5.60;;
8636;SDS011;4356;49.068;8.658;2022-11-20T01:13:51;5.27;;;4.90;;
8636;SDS011;4356;49.068;8.658;2022-11-20T01:16:19;5.93;;;5.43;;
8636;SDS011;4356;49.068;8.658;2022-11-20T01:18:47;5.53;;;5.13;;
8636;SDS011;4356;49.068;8.658;2022-11-20T01:21:26;5.97;;;5.57;;
8636;SDS011;4356;49.068;8.658;2022-11-20T01:23:51;5.20;;;4.90;;
8636;SDS011;4356;49.068;8.658;2022-11-20T01:26:19;5.30;;;5.00;;
8636;SDS011;4356;49.068;8.658;2022-11-20T01:28:49;4.93;;;4.53;;
8636;SDS011;4356;49.068;8.658;2022-11-20T01:33:43;4.60;;;4.30;;
8636;SDS011;4356;49.068;8.658;2022-11-20T01:36:10;4.23;;;3.93;;
8636;SDS011;4356;49.068;8.658;2022-11-20T01:38:36;4.77;;;4.37;;
8636;SDS011;4356;49.068;8.658;2022-11-20T01:41:02;5.07;;;4.60;;
8636;SDS011;4356;49.068;8.658;2022-11-20T01:43:29;4.77;;;4.40;;
8636;SDS011;4356;49.068;8.658;2022-11-20T01:46:02;4.33;;;4.03;;
8636;SDS011;4356;49.068;8.658;2022-11-20T01:48:54;3.03;;;2.83;;
8636;SDS011;4356;49.068;8.658;2022-11-20T01:51:35;3.77;;;3.57;;
8636;SDS011;4356;49.068;8.658;2022-11-20T01:54:06;3.83;;;3.60;;
8636;SDS011;4356;49.068;8.658;2022-11-20T01:56:38;4.40;;;4.10;;
8636;SDS011;4356;49.068;8.658;2022-11-20T01:59:08;4.20;;;3.90;;
8636;SDS011;4356;49.068;8.658;2022-11-20T02:01:36;3.60;;;3.40;;
8636;SDS011;4356;49.068;8.658;2022-11-20T02:04:02;4.10;;;3.80;;
8636;SDS011;4356;49.068;8.658;2022-11-20T02:09:30;4.00;;;3.70;;
8636;SDS011;4356;49.068;8.658;2022-11-20T02:11:56;4.07;;;3.30;;
8636;SDS011;4356;49.068;8.658;2022-11-20T02:14:23;3.80;;;3.50;;
8636;SDS011;4356;49.068;8.658;2022-11-20T02:16:49;3.97;;;3.63;;
8636;SDS011;4356;49.068;8.658;2022-11-20T02:19:26;3.73;;;3.43;;
8636;SDS011;4356;49.068;8.658;2022-11-20T02:24:47;3.47;;;3.27;;
8636;SDS011;4356;49.068;8.658;2022-11-20T02:27:15;2.53;;;2.40;;
8636;SDS011;4356;49.068;8.658;2022-11-20T02:29:44;4.67;;;3.70;;
8636;SDS011;4356;49.068;8.658;2022-11-20T02:32:37;3.47;;;3.27;;
8636;SDS011;4356;49.068;8.658;2022-11-20T02:37:33;3.67;;;3.40;;
8636;SDS011;4356;49.068;8.658;2022-11-20T02:40:02;3.30;;;3.10;;
8636;SDS011;4356;49.068;8.658;2022-11-20T02:42:28;3.20;;;2.97;;
8636;SDS011;4356;49.068;8.658;2022-11-20T02:44:54;3.90;;;3.63;;
8636;SDS011;4356;49.068;8.658;2022-11-20T02:47:20;3.37;;;3.17;;
8636;SDS011;4356;49.068;8.658;2022-11-20T02:49:45;1.30;;;0.83;;
8636;SDS011;4356;49.068;8.658;2022-11-20T02:52:11;3.33;;;3.13;;
8636;SDS011;4356;49.068;8.658;2022-11-20T02:54:36;2.97;;;2.20;;
8636;SDS011;4356;49.068;8.658;2022-11-20T02:57:02;3.50;;;3.30;;
8636;SDS011;4356;49.068;8.658;2022-11-20T02:59:28;3.37;;;3.07;;
8636;SDS011;4356;49.068;8.658;2022-11-20T03:01:53;3.43;;;2.80;;
8636;SDS011;4356;49.068;8.658;2022-11-20T03:04:19;2.00;;;1.90;;
8636;SDS011;4356;49.068;8.658;2022-11-20T03:06:45;2.63;;;2.07;;
8636;SDS011;4356;49.068;8.658;2022-11-20T03:09:10;2.13;;;2.03;;
8636;SDS011;4356;49.068;8.658;2022-11-20T03:11:36;2.17;;;2.07;;
8636;SDS011;4356;49.068;8.658;2022-11-20T03:14:03;2.00;;;1.90;;
8636;SDS011;4356;49.068;8.658;2022-11-20T03:16:30;0.80;;;0.80;;
8636;SDS011;4356;49.068;8.658;2022-11-20T03:18:56;3.20;;;3.00;;
8636;SDS011;4356;49.068;8.658;2022-11-20T03:21:22;3.07;;;2.87;;
8636;SDS011;4356;49.068;8.658;2022-11-20T03:23:47;2.33;;;2.10;;
8636;SDS011;4356;49.068;8.658;2022-11-20T03:26:17;3.03;;;2.83;;
8636;SDS011;4356;49.068;8.658;2022-11-20T03:28:46;2.97;;;2.77;;
8636;SDS011;4356;49.068;8.658;2022-11-20T03:31:24;3.03;;;2.70;;
8636;SDS011;4356;49.068;8.658;2022-11-20T03:33:51;3.07;;;2.87;;
8636;SDS011;4356;49.068;8.658;2022-11-20T03:36:17;3.10;;;2.80;;
8636;SDS011;4356;49.068;8.658;2022-11-20T03:38:45;2.73;;;2.53;;
8636;SDS011;4356;49.068;8.658;2022-11-20T03:41:13;2.73;;;2.63;;
8636;SDS011;4356;49.068;8.658;2022-11-20T03:43:46;2.63;;;2.53;;
8636;SDS011;4356;49.068;8.658;2022-11-20T03:46:16;2.33;;;2.00;;
8636;SDS011;4356;49.068;8.658;2022-11-20T03:48:41;1.87;;;1.77;;
8636;SDS011;4356;49.068;8.658;2022-11-20T03:51:14;2.33;;;2.13;;
8636;SDS011;4356;49.068;8.658;2022-11-20T03:53:42;2.57;;;2.37;;
8636;SDS011;4356;49.068;8.658;2022-11-20T03:56:10;1.17;;;1.17;;
8636;SDS011;4356;49.068;8.658;2022-11-20T03:58:37;2.63;;;2.53;;
8636;SDS011;4356;49.068;8.658;2022-11-20T04:01:11;2.70;;;2.53;;
8636;SDS011;4356;49.068;8.658;2022-11-20T04:03:39;2.23;;;2.00;;
8636;SDS011;4356;49.068;8.658;2022-11-20T04:06:08;2.47;;;2.27;;
8636;SDS011;4356;49.068;8.658;2022-11-20T04:08:41;2.70;;;2.50;;
8636;SDS011;4356;49.068;8.658;2022-11-20T04:11:13;2.10;;;2.00;;
8636;SDS011;4356;49.068;8.658;2022-11-20T04:13:41;3.17;;;2.87;;
8636;SDS011;4356;49.068;8.658;2022-11-20T04:16:10;1.87;;;1.80;;
8636;SDS011;4356;49.068;8.658;2022-11-20T04:18:36;1.57;;;1.57;;
8636;SDS011;4356;49.068;8.658;2022-11-20T04:21:02;1.57;;;1.27;;
8636;SDS011;4356;49.068;8.658;2022-11-20T04:23:29;2.27;;;2.17;;
8636;SDS011;4356;49.068;8.658;2022-11-20T04:25:54;2.07;;;1.97;;
8636;SDS011;4356;49.068;8.658;2022-11-20T04:28:26;2.33;;;2.23;;
8636;SDS011;4356;49.068;8.658;2022-11-20T04:30:51;2.40;;;2.30;;
8636;SDS011;4356;49.068;8.658;2022-11-20T04:33:17;2.33;;;2.13;;
8636;SDS011;4356;49.068;8.658;2022-11-20T04:35:42;2.43;;;2.33;;
8636;SDS011;4356;49.068;8.658;2022-11-20T04:38:12;2.07;;;1.97;;
8636;SDS011;4356;49.068;8.658;2022-11-20T04:40:38;0.73;;;0.73;;
8636;SDS011;4356;49.068;8.658;2022-11-20T04:43:04;2.03;;;1.93;;
8636;SDS011;4356;49.068;8.658;2022-11-20T04:45:30;1.20;;;1.17;;
8636;SDS011;4356;49.068;8.658;2022-11-20T04:47:55;2.37;;;2.27;;
8636;SDS011;4356;49.068;8.658;2022-11-20T04:50:21;2.53;;;2.43;;
8636;SDS011;4356;49.068;8.658;2022-11-20T04:52:46;1.40;;;1.40;;
8636;SDS011;4356;49.068;8.658;2022-11-20T04:55:12;2.10;;;2.00;;
8636;SDS011;4356;49.068;8.658;2022-11-20T04:57:38;1.87;;;1.77;;
8636;SDS011;4356;49.068;8.658;2022-11-20T05:00:04;2.37;;;2.27;;
8636;SDS011;4356;49.068;8.658;2022-11-20T05:02:30;2.17;;;2.07;;
8636;SDS011;4356;49.068;8.658;2022-11-20T05:04:56;2.60;;;2.50;;
8636;SDS011;4356;49.068;8.658;2022-11-20T05:07:22;2.30;;;2.20;;
8636;SDS011;4356;49.068;8.658;2022-11-20T05:09:48;1.33;;;1.33;;
8636;SDS011;4356;49.068;8.658;2022-11-20T05:12:13;2.30;;;2.20;;
8636;SDS011;4356;49.068;8.658;2022-11-20T05:14:39;2.33;;;2.23;;
8636;SDS011;4356;49.068;8.658;2022-11-20T05:17:05;1.40;;;1.37;;
8636;SDS011;4356;49.068;8.658;2022-11-20T05:19:30;0.97;;;0.97;;
8636;SDS011;4356;49.068;8.658;2022-11-20T05:21:56;2.07;;;1.93;;
8636;SDS011;4356;49.068;8.658;2022-11-20T05:24:22;2.50;;;2.27;;
8636;SDS011;4356;49.068;8.658;2022-11-20T05:26:47;2.13;;;2.00;;
8636;SDS011;4356;49.068;8.658;2022-11-20T05:29:13;0.63;;;0.63;;
8636;SDS011;4356;49.068;8.658;2022-11-20T05:31:40;1.67;;;1.57;;
8636;SDS011;4356;49.068;8.658;2022-11-20T05:34:06;1.23;;;1.13;;
8636;SDS011;4356;49.068;8.658;2022-11-20T05:36:33;1.90;;;1.80;;
8636;SDS011;4356;49.068;8.658;2022-11-20T05:38:59;1.67;;;1.60;;
8636;SDS011;4356;49.068;8.658;2022-11-20T05:41:24;0.90;;;0.90;;
8636;SDS011;4356;49.068;8.658;2022-11-20T05:43:50;1.10;;;1.07;;
8636;SDS011;4356;49.068;8.658;2022-11-20T05:46:17;2.00;;;1.90;;
8636;SDS011;4356;49.068;8.658;2022-11-20T05:48:48;1.97;;;1.70;;
8636;SDS011;4356;49.068;8.658;2022-11-20T05:51:14;1.50;;;1.50;;
8636;SDS011;4356;49.068;8.658;2022-11-20T05:53:42;1.37;;;1.27;;
8636;SDS011;4356;49.068;8.658;2022-11-20T05:56:16;2.20;;;2.00;;
8636;SDS011;4356;49.068;8.658;2022-11-20T05:58:43;1.90;;;1.80;;
8636;SDS011;4356;49.068;8.658;2022-11-20T06:01:13;1.90;;;1.80;;
8636;SDS011;4356;49.068;8.658;2022-11-20T06:03:41;2.07;;;1.97;;
8636;SDS011;4356;49.068;8.658;2022-11-20T06:06:08;1.27;;;1.27;;
8636;SDS011;4356;49.068;8.658;2022-11-20T06:08:34;1.40;;;1.20;;
8636;SDS011;4356;49.068;8.658;2022-11-20T06:11:04;1.50;;;1.50;;
8636;SDS011;4356;49.068;8.658;2022-11-20T06:13:31;1.23;;;1.17;;
8636;SDS011;4356;49.068;8.658;2022-11-20T06:15:57;1.47;;;1.47;;
8636;SDS011;4356;49.068;8.658;2022-11-20T06:18:22;1.97;;;1.80;;
8636;SDS011;4356;49.068;8.658;2022-11-20T06:20:48;2.00;;;1.90;;
8636;SDS011;4356;49.068;8.658;2022-11-20T06:23:13;1.87;;;1.77;;
8636;SDS011;4356;49.068;8.658;2022-11-20T06:25:40;1.67;;;1.57;;
8636;SDS011;4356;49.068;8.658;2022-11-20T06:28:06;1.50;;;1.50;;
8636;SDS011;4356;49.068;8.658;2022-11-20T06:30:32;1.87;;;1.77;;
8636;SDS011;4356;49.068;8.658;2022-11-20T06:32:58;0.83;;;0.83;;
8636;SDS011;4356;49.068;8.658;2022-11-20T06:35:24;1.50;;;1.47;;
8636;SDS011;4356;49.068;8.658;2022-11-20T06:37:49;1.20;;;1.20;;
8636;SDS011;4356;49.068;8.658;2022-11-20T06:40:15;1.73;;;1.63;;
8636;SDS011;4356;49.068;8.658;2022-11-20T06:42:41;1.30;;;1.30;;
8636;SDS011;4356;49.068;8.658;2022-11-20T06:45:07;1.37;;;1.37;;
8636;SDS011;4356;49.068;8.658;2022-11-20T06:47:33;1.57;;;1.50;;
8636;SDS011;4356;49.068;8.658;2022-11-20T06:49:59;1.60;;;1.40;;
8636;SDS011;4356;49.068;8.658;2022-11-20T06:52:24;1.20;;;1.20;;
8636;SDS011;4356;49.068;8.658;2022-11-20T06:54:50;1.90;;;1.80;;
8636;SDS011;4356;49.068;8.658;2022-11-20T06:57:16;1.40;;;1.40;;
8636;SDS011;4356;49.068;8.658;2022-11-20T06:59:41;1.43;;;1.37;;
8636;SDS011;4356;49.068;8.658;2022-11-20T07:02:13;1.50;;;1.40;;
8636;SDS011;4356;49.068;8.658;2022-11-20T07:04:39;1.30;;;1.10;;
8636;SDS011;4356;49.068;8.658;2022-11-20T07:07:05;1.03;;;1.03;;
8636;SDS011;4356;49.068;8.658;2022-11-20T07:09:31;1.47;;;1.47;;
8636;SDS011;4356;49.068;8.658;2022-11-20T07:11:57;1.33;;;1.30;;
8636;SDS011;4356;49.068;8.658;2022-11-20T07:14:23;3.43;;;1.70;;
8636;SDS011;4356;49.068;8.658;2022-11-20T07:16:48;1.70;;;1.60;;
8636;SDS011;4356;49.068;8.658;2022-11-20T07:19:14;1.40;;;1.40;;
8636;SDS011;4356;49.068;8.658;2022-11-20T07:21:40;1.23;;;1.23;;
8636;SDS011;4356;49.068;8.658;2022-11-20T07:24:06;2.00;;;1.60;;
8636;SDS011;4356;49.068;8.658;2022-11-20T07:26:32;2.00;;;1.60;;
8636;SDS011;4356;49.068;8.658;2022-11-20T07:28:57;2.20;;;1.63;;
8636;SDS011;4356;49.068;8.658;2022-11-20T07:31:23;2.03;;;1.43;;
8636;SDS011;4356;49.068;8.658;2022-11-20T07:33:49;1.23;;;1.23;;
8636;SDS011;4356;49.068;8.658;2022-11-20T07:36:15;1.50;;;1.40;;
8636;SDS011;4356;49.068;8.658;2022-11-20T07:38:40;1.30;;;1.30;;
8636;SDS011;4356;49.068;8.658;2022-11-20T07:41:06;0.70;;;0.70;;
8636;SDS011;4356;49.068;8.658;2022-11-20T07:43:32;1.27;;;1.27;;
8636;SDS011;4356;49.068;8.658;2022-11-20T07:45:58;1.37;;;1.27;;
8636;SDS011;4356;49.068;8.658;2022-11-20T07:48:24;0.80;;;0.80;;
8636;SDS011;4356;49.068;8.658;2022-11-20T07:50:56;1.60;;;1.30;;
8636;SDS011;4356;49.068;8.658;2022-11-20T07:53:22;1.30;;;1.30;;
8636;SDS011;4356;49.068;8.658;2022-11-20T07:55:48;1.20;;;1.20;;
8636;SDS011;4356;49.068;8.658;2022-11-20T07:58:17;1.40;;;1.23;;
8636;SDS011;4356;49.068;8.658;2022-11-20T08:00:44;0.80;;;0.80;;
8636;SDS011;4356;49.068;8.658;2022-11-20T08:03:09;1.60;;;1.33;;
8636;SDS011;4356;49.068;8.658;2022-11-20T08:05:35;1.27;;;1.27;;
8636;SDS011;4356;49.068;8.658;2022-11-20T08:08:02;1.10;;;1.10;;
8636;SDS011;4356;49.068;8.658;2022-11-20T08:10:28;1.50;;;1.40;;
8636;SDS011;4356;49.068;8.658;2022-11-20T08:12:54;1.37;;;1.37;;
8636;SDS011;4356;49.068;8.658;2022-11-20T08:15:38;1.13;;;1.13;;
8636;SDS011;4356;49.068;8.658;2022-11-20T08:18:08;0.50;;;0.50;;
8636;SDS011;4356;49.068;8.658;2022-11-20T08:20:36;1.53;;;1.53;;
8636;SDS011;4356;49.068;8.658;2022-11-20T08:23:04;1.43;;;1.33;;
8636;SDS011;4356;49.068;8.658;2022-11-20T08:25:31;1.60;;;1.50;;
8636;SDS011;4356;49.068;8.658;2022-11-20T08:28:02;1.03;;;1.03;;
8636;SDS011;4356;49.068;8.658;2022-11-20T08:30:29;1.60;;;1.50;;
8636;SDS011;4356;49.068;8.658;2022-11-20T08:32:59;1.40;;;1.40;;
8636;SDS011;4356;49.068;8.658;2022-11-20T08:35:33;2.07;;;0.97;;
8636;SDS011;4356;49.068;8.658;2022-11-20T08:38:06;1.40;;;1.40;;
8636;SDS011;4356;49.068;8.658;2022-11-20T08:40:32;1.13;;;1.13;;
8636;SDS011;4356;49.068;8.658;2022-11-20T08:42:58;1.77;;;1.67;;
8636;SDS011;4356;49.068;8.658;2022-11-20T08:45:24;1.47;;;1.40;;
8636;SDS011;4356;49.068;8.658;2022-11-20T08:47:50;2.03;;;1.40;;
8636;SDS011;4356;49.068;8.658;2022-11-20T08:50:16;1.63;;;1.53;;
8636;SDS011;4356;49.068;8.658;2022-11-20T08:52:42;1.13;;;1.13;;
8636;SDS011;4356;49.068;8.658;2022-11-20T08:55:08;1.40;;;1.30;;
8636;SDS011;4356;49.068;8.658;2022-11-20T08:57:35;2.37;;;1.70;;
8636;SDS011;4356;49.068;8.658;2022-11-20T09:00:02;0.80;;;0.80;;
8636;SDS011;4356;49.068;8.658;2022-11-20T09:02:30;1.03;;;1.03;;
8636;SDS011;4356;49.068;8.658;2022-11-20T09:04:57;1.23;;;1.23;;
8636;SDS011;4356;49.068;8.658;2022-11-20T09:07:23;0.70;;;0.70;;
8636;SDS011;4356;49.068;8.658;2022-11-20T09:09:49;2.00;;;1.77;;
8636;SDS011;4356;49.068;8.658;2022-11-20T09:12:14;0.80;;;0.80;;
8636;SDS011;4356;49.068;8.658;2022-11-20T09:14:40;1.10;;;0.90;;
8636;SDS011;4356;49.068;8.658;2022-11-20T09:17:06;1.00;;;1.00;;
8636;SDS011;4356;49.068;8.658;2022-11-20T09:19:32;1.53;;;1.50;;
8636;SDS011;4356;49.068;8.658;2022-11-20T09:21:59;1.87;;;1.77;;
8636;SDS011;4356;49.068;8.658;2022-11-20T09:24:25;1.50;;;1.50;;
8636;SDS011;4356;49.068;8.658;2022-11-20T09:26:52;1.10;;;1.10;;
8636;SDS011;4356;49.068;8.658;2022-11-20T09:29:17;0.33;;;0.33;;
8636;SDS011;4356;49.068;8.658;2022-11-20T09:31:43;1.80;;;1.70;;
8636;SDS011;4356;49.068;8.658;2022-11-20T09:34:09;1.80;;;1.50;;
8636;SDS011;4356;49.068;8.658;2022-11-20T09:36:35;1.47;;;1.47;;
8636;SDS011;4356;49.068;8.658;2022-11-20T09:39:00;1.70;;;1.30;;
8636;SDS011;4356;49.068;8.658;2022-11-20T09:44:24;1.57;;;1.47;;
8636;SDS011;4356;49.068;8.658;2022-11-20T09:47:08;1.43;;;1.40;;
8636;SDS011;4356;49.068;8.658;2022-11-20T09:52:47;1.13;;;1.13;;
8636;SDS011;4356;49.068;8.658;2022-11-20T09:55:18;1.97;;;1.87;;
8636;SDS011;4356;49.068;8.658;2022-11-20T09:57:44;1.47;;;1.37;;
8636;SDS011;4356;49.068;8.658;2022-11-20T10:00:13;0.97;;;0.87;;
8636;SDS011;4356;49.068;8.658;2022-11-20T10:05:22;1.30;;;1.30;;
8636;SDS011;4356;49.068;8.658;2022-11-20T10:07:53;0.90;;;0.90;;
8636;SDS011;4356;49.068;8.658;2022-11-20T10:10:31;1.27;;;1.27;;
8636;SDS011;4356;49.068;8.658;2022-11-20T10:13:09;1.90;;;1.80;;
8636;SDS011;4356;49.068;8.658;2022-11-20T10:16:16;0.93;;;0.93;;
8636;SDS011;4356;49.068;8.658;2022-11-20T10:21:28;1.07;;;1.07;;
8636;SDS011;4356;49.068;8.658;2022-11-20T10:24:08;1.17;;;1.17;;
8636;SDS011;4356;49.068;8.658;2022-11-20T10:30:17;1.10;;;1.10;;
8636;SDS011;4356;49.068;8.658;2022-11-20T10:32:43;1.83;;;1.73;;
8636;SDS011;4356;49.068;8.658;2022-11-20T10:38:00;4.53;;;1.77;;
8636;SDS011;4356;49.068;8.658;2022-11-20T10:40:32;2.27;;;2.10;;
8636;SDS011;4356;49.068;8.658;2022-11-20T10:43:08;1.13;;;1.03;;
8636;SDS011;4356;49.068;8.658;2022-11-20T10:48:24;2.03;;;1.80;;
8636;SDS011;4356;49.068;8.658;2022-11-20T11:02:16;0.90;;;0.90;;
8636;SDS011;4356;49.068;8.658;2022-11-20T11:04:49;5.50;;;1.70;;
8636;SDS011;4356;49.068;8.658;2022-11-20T11:07:26;2.23;;;1.90;;
8636;SDS011;4356;49.068;8.658;2022-11-20T11:09:56;1.00;;;1.00;;
8636;SDS011;4356;49.068;8.658;2022-11-20T11:12:26;1.00;;;1.00;;
8636;SDS011;4356;49.068;8.658;2022-11-20T11:14:54;1.87;;;1.77;;
8636;SDS011;4356;49.068;8.658;2022-11-20T11:17:25;2.00;;;1.60;;
8636;SDS011;4356;49.068;8.658;2022-11-20T11:20:35;1.47;;;1.47;;
8636;SDS011;4356;49.068;8.658;2022-11-20T11:22:46;2.10;;;1.90;;
8636;SDS011;4356;49.068;8.658;2022-11-20T11:25:28;1.93;;;1.83;;
8636;SDS011;4356;49.068;8.658;2022-11-20T11:27:54;1.83;;;1.73;;
8636;SDS011;4356;49.068;8.658;2022-11-20T11:30:24;1.90;;;1.80;;
8636;SDS011;4356;49.068;8.658;2022-11-20T11:33:02;2.97;;;1.93;;
8636;SDS011;4356;49.068;8.658;2022-11-20T11:35:29;2.03;;;1.93;;
8636;SDS011;4356;49.068;8.658;2022-11-20T11:38:01;4.30;;;2.00;;
8636;SDS011;4356;49.068;8.658;2022-11-20T11:40:35;1.80;;;1.70;;
8636;SDS011;4356;49.068;8.658;2022-11-20T11:43:15;2.33;;;2.10;;
8636;SDS011;4356;49.068;8.658;2022-11-20T11:46:03;1.03;;;1.03;;
8636;SDS011;4356;49.068;8.658;2022-11-20T11:48:55;1.50;;;1.40;;
8636;SDS011;4356;49.068;8.658;2022-11-20T11:51:22;2.07;;;1.43;;
8636;SDS011;4356;49.068;8.658;2022-11-20T11:53:51;2.07;;;1.97;;
8636;SDS011;4356;49.068;8.658;2022-11-20T11:56:17;1.60;;;1.50;;
8636;SDS011;4356;49.068;8.658;2022-11-20T11:58:46;1.60;;;1.50;;
8636;SDS011;4356;49.068;8.658;2022-11-20T12:01:20;0.80;;;0.80;;
8636;SDS011;4356;49.068;8.658;2022-11-20T12:03:53;1.47;;;1.47;;
8636;SDS011;4356;49.068;8.658;2022-11-20T12:06:27;2.93;;;1.50;;
8636;SDS011;4356;49.068;8.658;2022-11-20T12:09:01;2.97;;;1.07;;
8636;SDS011;4356;49.068;8.658;2022-11-20T12:14:15;0.93;;;0.93;;
8636;SDS011;4356;49.068;8.658;2022-11-20T12:16:49;0.80;;;0.80;;
8636;SDS011;4356;49.068;8.658;2022-11-20T12:19:17;0.53;;;0.53;;
8636;SDS011;4356;49.068;8.658;2022-11-20T12:25:07;1.03;;;1.03;;
8636;SDS011;4356;49.068;8.658;2022-11-20T12:30:19;1.30;;;1.17;;
8636;SDS011;4356;49.068;8.658;2022-11-20T12:35:42;2.27;;;1.60;;
8636;SDS011;4356;49.068;8.658;2022-11-20T12:50:28;2.27;;;1.27;;
8636;SDS011;4356;49.068;8.658;2022-11-20T12:53:11;1.50;;;1.40;;
8636;SDS011;4356;49.068;8.658;2022-11-20T12:56:05;1.67;;;1.40;;
8636;SDS011;4356;49.068;8.658;2022-11-20T12:59:03;0.60;;;0.60;;
8636;SDS011;4356;49.068;8.658;2022-11-20T13:01:51;1.30;;;1.20;;
8636;SDS011;4356;49.068;8.658;2022-11-20T13:07:02;2.30;;;1.20;;
8636;SDS011;4356;49.068;8.658;2022-11-20T13:09:31;0.80;;;0.80;;
8636;SDS011;4356;49.068;8.658;2022-11-20T13:17:53;1.97;;;1.10;;
8636;SDS011;4356;49.068;8.658;2022-11-20T13:20:22;1.27;;;1.20;;
8636;SDS011;4356;49.068;8.658;2022-11-20T13:22:52;0.80;;;0.80;;
8636;SDS011;4356;49.068;8.658;2022-11-20T13:25:28;0.53;;;0.53;;
8636;SDS011;4356;49.068;8.658;2022-11-20T13:27:56;2.20;;;1.00;;
8636;SDS011;4356;49.068;8.658;2022-11-20T13:30:26;1.00;;;0.87;;
8636;SDS011;4356;49.068;8.658;2022-11-20T13:32:54;1.10;;;0.70;;
8636;SDS011;4356;49.068;8.658;2022-11-20T13:35:32;0.60;;;0.53;;
8636;SDS011;4356;49.068;8.658;2022-11-20T13:38:00;0.80;;;0.80;;
8636;SDS011;4356;49.068;8.658;2022-11-20T13:40:28;2.13;;;1.13;;
8636;SDS011;4356;49.068;8.658;2022-11-20T13:45:42;2.50;;;1.40;;
8636;SDS011;4356;49.068;8.658;2022-11-20T13:48:20;0.67;;;0.67;;
8636;SDS011;4356;49.068;8.658;2022-11-20T13:59:27;0.70;;;0.70;;
8636;SDS011;4356;49.068;8.658;2022-11-20T14:02:09;1.17;;;1.07;;
8636;SDS011;4356;49.068;8.658;2022-11-20T14:04:38;1.57;;;1.10;;
8636;SDS011;4356;49.068;8.658;2022-11-20T14:07:08;0.80;;;0.80;;
8636;SDS011;4356;49.068;8.658;2022-11-20T14:09:35;1.40;;;0.73;;
8636;SDS011;4356;49.068;8.658;2022-11-20T14:12:01;0.47;;;0.47;;
8636;SDS011;4356;49.068;8.658;2022-11-20T14:14:28;1.70;;;0.90;;
8636;SDS011;4356;49.068;8.658;2022-11-20T14:17:05;0.57;;;0.57;;
8636;SDS011;4356;49.068;8.658;2022-11-20T14:19:42;0.57;;;0.57;;
8636;SDS011;4356;49.068;8.658;2022-11-20T14:27:36;1.17;;;1.00;;
8636;SDS011;4356;49.068;8.658;2022-11-20T14:30:04;2.10;;;0.60;;
8636;SDS011;4356;49.068;8.658;2022-11-20T14:32:31;2.93;;;1.30;;
8636;SDS011;4356;49.068;8.658;2022-11-20T14:35:02;0.80;;;0.80;;
8636;SDS011;4356;49.068;8.658;2022-11-20T14:37:36;1.10;;;1.00;;
8636;SDS011;4356;49.068;8.658;2022-11-20T14:40:05;1.27;;;1.17;;
8636;SDS011;4356;49.068;8.658;2022-11-20T14:42:47;1.00;;;1.00;;
8636;SDS011;4356;49.068;8.658;2022-11-20T14:45:12;1.10;;;0.77;;
8636;SDS011;4356;49.068;8.658;2022-11-20T14:47:38;0.73;;;0.73;;
8636;SDS011;4356;49.068;8.658;2022-11-20T14:50:07;1.27;;;0.77;;
8636;SDS011;4356;49.068;8.658;2022-11-20T14:52:49;0.73;;;0.73;;
8636;SDS011;4356;49.068;8.658;2022-11-20T14:55:28;1.13;;;0.90;;
8636;SDS011;4356;49.068;8.658;2022-11-20T14:57:57;1.50;;;0.60;;
8636;SDS011;4356;49.068;8.658;2022-11-20T15:00:28;3.27;;;1.30;;
8636;SDS011;4356;49.068;8.658;2022-11-20T15:02:54;1.93;;;0.80;;
8636;SDS011;4356;49.068;8.658;2022-11-20T15:05:43;1.00;;;0.90;;
8636;SDS011;4356;49.068;8.658;2022-11-20T15:08:11;1.37;;;1.07;;
8636;SDS011;4356;49.068;8.658;2022-11-20T15:10:38;1.03;;;0.93;;
8636;SDS011;4356;49.068;8.658;2022-11-20T15:13:19;1.13;;;0.80;;
8636;SDS011;4356;49.068;8.658;2022-11-20T15:15:52;0.90;;;0.90;;
8636;SDS011;4356;49.068;8.658;2022-11-20T15:18:38;0.80;;;0.80;;
8636;SDS011;4356;49.068;8.658;2022-11-20T15:21:13;1.07;;;1.00;;
8636;SDS011;4356;49.068;8.658;2022-11-20T15:23:40;2.60;;;0.90;;
8636;SDS011;4356;49.068;8.658;2022-11-20T15:26:10;2.00;;;1.30;;
8636;SDS011;4356;49.068;8.658;2022-11-20T15:28:46;1.03;;;0.93;;
8636;SDS011;4356;49.068;8.658;2022-11-20T15:31:16;1.20;;;0.73;;
8636;SDS011;4356;49.068;8.658;2022-11-20T15:33:44;1.33;;;1.03;;
8636;SDS011;4356;49.068;8.658;2022-11-20T15:36:10;0.80;;;0.80;;
8636;SDS011;4356;49.068;8.658;2022-11-20T15:38:36;1.37;;;1.17;;
8636;SDS011;4356;49.068;8.658;2022-11-20T15:41:02;1.00;;;1.00;;
8636;SDS011;4356;49.068;8.658;2022-11-20T15:43:28;1.13;;;1.10;;
8636;SDS011;4356;49.068;8.658;2022-11-20T15:45:55;1.27;;;0.87;;
8636;SDS011;4356;49.068;8.658;2022-11-20T15:48:26;1.67;;;1.57;;
8636;SDS011;4356;49.068;8.658;2022-11-20T15:54:01;1.03;;;0.90;;
8636;SDS011;4356;49.068;8.658;2022-11-20T15:56:38;1.00;;;0.70;;
8636;SDS011;4356;49.068;8.658;2022-11-20T15:59:03;0.70;;;0.70;;
8636;SDS011;4356;49.068;8.658;2022-11-20T16:01:29;0.90;;;0.90;;
8636;SDS011;4356;49.068;8.658;2022-11-20T16:03:55;1.27;;;0.73;;
8636;SDS011;4356;49.068;8.658;2022-11-20T16:06:21;1.13;;;1.00;;
8636;SDS011;4356;49.068;8.658;2022-11-20T16:08:47;1.90;;;1.40;;
8636;SDS011;4356;49.068;8.658;2022-11-20T16:11:13;1.57;;;1.33;;
8636;SDS011;4356;49.068;8.658;2022-11-20T16:13:40;1.60;;;1.27;;
8636;SDS011;4356;49.068;8.658;2022-11-20T16:16:27;0.90;;;0.90;;
8636;SDS011;4356;49.068;8.658;2022-11-20T16:18:53;1.23;;;0.90;;
8636;SDS011;4356;49.068;8.658;2022-11-20T16:21:19;2.53;;;1.23;;
8636;SDS011;4356;49.068;8.658;2022-11-20T16:23:45;1.17;;;1.13;;
8636;SDS011;4356;49.068;8.658;2022-11-20T16:26:12;1.40;;;0.80;;
8636;SDS011;4356;49.068;8.658;2022-11-20T16:28:39;1.70;;;1.10;;
8636;SDS011;4356;49.068;8.658;2022-11-20T16:31:12;1.10;;;1.10;;
8636;SDS011;4356;49.068;8.658;2022-11-20T16:33:39;0.80;;;0.80;;
8636;SDS011;4356;49.068;8.658;2022-11-20T16:36:12;1.00;;;1.00;;
8636;SDS011;4356;49.068;8.658;2022-11-20T16:38:39;1.20;;;1.00;;
8636;SDS011;4356;49.068;8.658;2022-11-20T16:41:05;1.37;;;1.07;;
8636;SDS011;4356;49.068;8.658;2022-11-20T16:43:42;0.90;;;0.90;;
8636;SDS011;4356;49.068;8.658;2022-11-20T16:46:16;1.27;;;0.80;;
8636;SDS011;4356;49.068;8.658;2022-11-20T16:48:44;0.83;;;0.83;;
8636;SDS011;4356;49.068;8.658;2022-11-20T16:51:10;2.63;;;0.90;;
8636;SDS011;4356;49.068;8.658;2022-11-20T16:53:38;1.37;;;1.10;;
8636;SDS011;4356;49.068;8.658;2022-11-20T16:56:14;1.10;;;1.10;;
8636;SDS011;4356;49.068;8.658;2022-11-20T16:58:43;0.97;;;0.97;;
8636;SDS011;4356;49.068;8.658;2022-11-20T17:01:11;3.00;;;0.80;;